sensor_id;sensor_type;location;lat;lon;timestamp;P1;durP1;ratioP1;P2;durP2;ratioP2
66523;SDS011;53350;52.210;5.160;2022-07-29T00:02:18;3.47;;;1.15;;
66523;SDS011;53350;52.210;5.160;2022-07-29T00:04:44;5.72;;;1.40;;
66523;SDS011;53350;52.210;5.160;2022-07-29T00:07:11;3.85;;;1.30;;
66523;SDS011;53350;52.210;5.160;2022-07-29T00:09:38;5.88;;;1.40;;
66523;SDS011;53350;52.210;5.160;2022-07-29T00:12:05;2.70;;;1.13;;
66523;SDS011;53350;52.210;5.160;2022-07-29T00:14:31;6.80;;;1.40;;
66523;SDS011;53350;52.210;5.160;2022-07-29T00:16:58;3.70;;;1.45;;
66523;SDS011;53350;52.210;5.160;2022-07-29T00:19:24;4.70;;;1.63;;
66523;SDS011;53350;52.210;5.160;2022-07-29T00:21:51;8.65;;;1.40;;
66523;SDS011;53350;52.210;5.160;2022-07-29T00:24:17;9.75;;;1.90;;
66523;SDS011;53350;52.210;5.160;2022-07-29T00:26:45;4.85;;;1.88;;
66523;SDS011;53350;52.210;5.160;2022-07-29T00:29:11;4.05;;;1.70;;
66523;SDS011;53350;52.210;5.160;2022-07-29T00:31:38;5.50;;;1.27;;
66523;SDS011;53350;52.210;5.160;2022-07-29T00:34:04;3.58;;;1.10;;
66523;SDS011;53350;52.210;5.160;2022-07-29T00:36:51;3.58;;;1.27;;
66523;SDS011;53350;52.210;5.160;2022-07-29T00:39:16;3.95;;;1.10;;
66523;SDS011;53350;52.210;5.160;2022-07-29T00:41:42;2.08;;;1.20;;
66523;SDS011;53350;52.210;5.160;2022-07-29T00:44:10;7.60;;;1.50;;
66523;SDS011;53350;52.210;5.160;2022-07-29T00:46:37;5.28;;;1.30;;
66523;SDS011;53350;52.210;5.160;2022-07-29T00:49:03;4.80;;;1.42;;
66523;SDS011;53350;52.210;5.160;2022-07-29T00:51:30;5.07;;;1.55;;
66523;SDS011;53350;52.210;5.160;2022-07-29T00:53:56;3.58;;;1.40;;
66523;SDS011;53350;52.210;5.160;2022-07-29T00:56:23;4.95;;;1.58;;
66523;SDS011;53350;52.210;5.160;2022-07-29T00:58:50;3.90;;;1.25;;
66523;SDS011;53350;52.210;5.160;2022-07-29T01:03:44;5.40;;;1.67;;
66523;SDS011;53350;52.210;5.160;2022-07-29T01:06:10;8.18;;;1.75;;
66523;SDS011;53350;52.210;5.160;2022-07-29T01:08:37;5.30;;;1.38;;
66523;SDS011;53350;52.210;5.160;2022-07-29T01:11:03;4.93;;;1.50;;
66523;SDS011;53350;52.210;5.160;2022-07-29T01:13:30;7.13;;;1.70;;
66523;SDS011;53350;52.210;5.160;2022-07-29T01:16:03;8.02;;;1.67;;
66523;SDS011;53350;52.210;5.160;2022-07-29T01:18:34;4.72;;;1.35;;
66523;SDS011;53350;52.210;5.160;2022-07-29T01:21:08;5.70;;;1.60;;
66523;SDS011;53350;52.210;5.160;2022-07-29T01:23:51;5.47;;;1.48;;
66523;SDS011;53350;52.210;5.160;2022-07-29T01:26:35;5.88;;;1.40;;
66523;SDS011;53350;52.210;5.160;2022-07-29T01:29:12;5.80;;;1.70;;
66523;SDS011;53350;52.210;5.160;2022-07-29T01:31:44;3.63;;;1.48;;
66523;SDS011;53350;52.210;5.160;2022-07-29T01:34:15;5.32;;;1.40;;
66523;SDS011;53350;52.210;5.160;2022-07-29T01:36:47;4.22;;;1.30;;
66523;SDS011;53350;52.210;5.160;2022-07-29T01:39:17;4.30;;;1.40;;
66523;SDS011;53350;52.210;5.160;2022-07-29T01:41:48;6.40;;;1.30;;
66523;SDS011;53350;52.210;5.160;2022-07-29T01:44:24;4.13;;;1.48;;
66523;SDS011;53350;52.210;5.160;2022-07-29T01:46:57;3.53;;;1.50;;
66523;SDS011;53350;52.210;5.160;2022-07-29T01:49:27;4.95;;;1.50;;
66523;SDS011;53350;52.210;5.160;2022-07-29T01:51:56;5.57;;;1.38;;
66523;SDS011;53350;52.210;5.160;2022-07-29T01:54:28;5.18;;;1.90;;
66523;SDS011;53350;52.210;5.160;2022-07-29T01:56:58;5.60;;;1.45;;
66523;SDS011;53350;52.210;5.160;2022-07-29T02:01:55;4.60;;;1.55;;
66523;SDS011;53350;52.210;5.160;2022-07-29T02:04:24;6.10;;;1.58;;
66523;SDS011;53350;52.210;5.160;2022-07-29T02:06:54;3.67;;;1.33;;
66523;SDS011;53350;52.210;5.160;2022-07-29T02:09:24;6.72;;;1.95;;
66523;SDS011;53350;52.210;5.160;2022-07-29T02:11:53;4.30;;;1.53;;
66523;SDS011;53350;52.210;5.160;2022-07-29T02:14:21;3.58;;;1.60;;
66523;SDS011;53350;52.210;5.160;2022-07-29T02:16:51;5.03;;;1.60;;
66523;SDS011;53350;52.210;5.160;2022-07-29T02:19:21;4.78;;;1.67;;
66523;SDS011;53350;52.210;5.160;2022-07-29T02:21:50;6.05;;;2.00;;
66523;SDS011;53350;52.210;5.160;2022-07-29T02:24:19;8.13;;;1.73;;
66523;SDS011;53350;52.210;5.160;2022-07-29T02:26:47;4.25;;;1.60;;
66523;SDS011;53350;52.210;5.160;2022-07-29T02:29:15;4.57;;;1.60;;
66523;SDS011;53350;52.210;5.160;2022-07-29T02:31:42;3.97;;;1.67;;
66523;SDS011;53350;52.210;5.160;2022-07-29T02:34:13;5.32;;;1.80;;
66523;SDS011;53350;52.210;5.160;2022-07-29T02:36:42;3.97;;;1.60;;
66523;SDS011;53350;52.210;5.160;2022-07-29T02:41:40;4.10;;;1.50;;
66523;SDS011;53350;52.210;5.160;2022-07-29T02:44:10;5.80;;;1.98;;
66523;SDS011;53350;52.210;5.160;2022-07-29T02:46:41;5.63;;;1.70;;
66523;SDS011;53350;52.210;5.160;2022-07-29T02:49:13;7.63;;;1.90;;
66523;SDS011;53350;52.210;5.160;2022-07-29T02:51:45;4.07;;;1.90;;
66523;SDS011;53350;52.210;5.160;2022-07-29T02:54:18;6.25;;;1.77;;
66523;SDS011;53350;52.210;5.160;2022-07-29T02:56:49;5.97;;;1.70;;
66523;SDS011;53350;52.210;5.160;2022-07-29T02:59:22;4.07;;;1.67;;
66523;SDS011;53350;52.210;5.160;2022-07-29T03:01:51;7.05;;;1.63;;
66523;SDS011;53350;52.210;5.160;2022-07-29T03:04:21;7.53;;;1.83;;
66523;SDS011;53350;52.210;5.160;2022-07-29T03:06:50;5.68;;;1.98;;
66523;SDS011;53350;52.210;5.160;2022-07-29T03:09:18;7.47;;;2.10;;
66523;SDS011;53350;52.210;5.160;2022-07-29T03:11:46;5.60;;;2.20;;
66523;SDS011;53350;52.210;5.160;2022-07-29T03:14:13;6.38;;;1.50;;
66523;SDS011;53350;52.210;5.160;2022-07-29T03:16:40;5.10;;;1.60;;
66523;SDS011;53350;52.210;5.160;2022-07-29T03:19:07;3.08;;;1.33;;
66523;SDS011;53350;52.210;5.160;2022-07-29T03:21:35;5.30;;;1.88;;
66523;SDS011;53350;52.210;5.160;2022-07-29T03:24:02;5.95;;;1.65;;
66523;SDS011;53350;52.210;5.160;2022-07-29T03:26:28;7.25;;;1.85;;
66523;SDS011;53350;52.210;5.160;2022-07-29T03:28:55;5.28;;;1.77;;
66523;SDS011;53350;52.210;5.160;2022-07-29T03:31:21;5.57;;;1.92;;
66523;SDS011;53350;52.210;5.160;2022-07-29T03:33:48;4.45;;;1.90;;
66523;SDS011;53350;52.210;5.160;2022-07-29T03:36:14;6.28;;;1.70;;
66523;SDS011;53350;52.210;5.160;2022-07-29T03:38:42;4.78;;;1.70;;
66523;SDS011;53350;52.210;5.160;2022-07-29T03:41:10;4.80;;;1.60;;
66523;SDS011;53350;52.210;5.160;2022-07-29T03:46:07;7.28;;;1.70;;
66523;SDS011;53350;52.210;5.160;2022-07-29T03:48:36;7.50;;;2.10;;
66523;SDS011;53350;52.210;5.160;2022-07-29T03:51:05;6.85;;;1.92;;
66523;SDS011;53350;52.210;5.160;2022-07-29T03:53:32;3.65;;;1.67;;
66523;SDS011;53350;52.210;5.160;2022-07-29T03:56:01;7.13;;;2.10;;
66523;SDS011;53350;52.210;5.160;2022-07-29T03:58:29;4.85;;;1.88;;
66523;SDS011;53350;52.210;5.160;2022-07-29T04:03:24;5.43;;;1.55;;
66523;SDS011;53350;52.210;5.160;2022-07-29T04:05:57;9.65;;;1.90;;
66523;SDS011;53350;52.210;5.160;2022-07-29T04:08:24;10.07;;;3.88;;
66523;SDS011;53350;52.210;5.160;2022-07-29T04:10:51;6.10;;;1.63;;
66523;SDS011;53350;52.210;5.160;2022-07-29T04:13:19;6.90;;;1.67;;
66523;SDS011;53350;52.210;5.160;2022-07-29T04:18:12;5.32;;;2.10;;
66523;SDS011;53350;52.210;5.160;2022-07-29T04:20:39;4.07;;;1.65;;
66523;SDS011;53350;52.210;5.160;2022-07-29T04:23:05;8.20;;;2.08;;
66523;SDS011;53350;52.210;5.160;2022-07-29T04:25:31;6.88;;;1.70;;
66523;SDS011;53350;52.210;5.160;2022-07-29T04:27:58;8.43;;;1.80;;
66523;SDS011;53350;52.210;5.160;2022-07-29T04:30:29;6.03;;;1.95;;
66523;SDS011;53350;52.210;5.160;2022-07-29T04:35:22;6.82;;;1.77;;
66523;SDS011;53350;52.210;5.160;2022-07-29T04:37:48;5.18;;;1.65;;
66523;SDS011;53350;52.210;5.160;2022-07-29T04:40:15;6.10;;;1.70;;
66523;SDS011;53350;52.210;5.160;2022-07-29T04:42:42;4.55;;;1.70;;
66523;SDS011;53350;52.210;5.160;2022-07-29T04:45:08;8.23;;;1.70;;
66523;SDS011;53350;52.210;5.160;2022-07-29T04:47:36;5.22;;;1.90;;
66523;SDS011;53350;52.210;5.160;2022-07-29T04:50:03;3.08;;;1.40;;
66523;SDS011;53350;52.210;5.160;2022-07-29T04:52:30;6.60;;;1.73;;
66523;SDS011;53350;52.210;5.160;2022-07-29T04:54:56;5.97;;;2.13;;
66523;SDS011;53350;52.210;5.160;2022-07-29T04:57:23;4.57;;;1.70;;
66523;SDS011;53350;52.210;5.160;2022-07-29T04:59:49;6.45;;;2.20;;
66523;SDS011;53350;52.210;5.160;2022-07-29T05:02:15;5.18;;;1.80;;
66523;SDS011;53350;52.210;5.160;2022-07-29T05:04:43;3.28;;;1.50;;
66523;SDS011;53350;52.210;5.160;2022-07-29T05:07:10;5.35;;;1.85;;
66523;SDS011;53350;52.210;5.160;2022-07-29T05:09:36;8.60;;;1.83;;
66523;SDS011;53350;52.210;5.160;2022-07-29T05:12:03;6.97;;;1.73;;
66523;SDS011;53350;52.210;5.160;2022-07-29T05:14:29;4.80;;;1.52;;
66523;SDS011;53350;52.210;5.160;2022-07-29T05:16:56;3.97;;;1.88;;
66523;SDS011;53350;52.210;5.160;2022-07-29T05:19:22;5.03;;;1.90;;
66523;SDS011;53350;52.210;5.160;2022-07-29T05:21:50;4.25;;;1.40;;
66523;SDS011;53350;52.210;5.160;2022-07-29T05:24:17;4.55;;;1.85;;
66523;SDS011;53350;52.210;5.160;2022-07-29T05:26:43;7.40;;;2.20;;
66523;SDS011;53350;52.210;5.160;2022-07-29T05:29:09;4.63;;;1.65;;
66523;SDS011;53350;52.210;5.160;2022-07-29T05:31:36;6.95;;;1.90;;
66523;SDS011;53350;52.210;5.160;2022-07-29T05:34:02;7.05;;;2.10;;
66523;SDS011;53350;52.210;5.160;2022-07-29T05:36:29;7.22;;;1.88;;
66523;SDS011;53350;52.210;5.160;2022-07-29T05:38:57;7.30;;;2.15;;
66523;SDS011;53350;52.210;5.160;2022-07-29T05:41:23;9.35;;;1.77;;
66523;SDS011;53350;52.210;5.160;2022-07-29T05:43:49;5.20;;;1.63;;
66523;SDS011;53350;52.210;5.160;2022-07-29T05:46:16;7.50;;;2.03;;
66523;SDS011;53350;52.210;5.160;2022-07-29T05:48:42;5.63;;;2.15;;
66523;SDS011;53350;52.210;5.160;2022-07-29T05:51:09;9.48;;;1.83;;
66523;SDS011;53350;52.210;5.160;2022-07-29T05:53:36;5.60;;;1.80;;
66523;SDS011;53350;52.210;5.160;2022-07-29T05:56:04;6.75;;;1.85;;
66523;SDS011;53350;52.210;5.160;2022-07-29T05:58:31;8.98;;;2.05;;
66523;SDS011;53350;52.210;5.160;2022-07-29T06:00:58;8.88;;;2.00;;
66523;SDS011;53350;52.210;5.160;2022-07-29T06:03:25;5.53;;;1.75;;
66523;SDS011;53350;52.210;5.160;2022-07-29T06:05:52;4.22;;;1.90;;
66523;SDS011;53350;52.210;5.160;2022-07-29T06:08:18;8.30;;;1.88;;
66523;SDS011;53350;52.210;5.160;2022-07-29T06:10:45;5.70;;;1.90;;
66523;SDS011;53350;52.210;5.160;2022-07-29T06:13:13;6.13;;;1.63;;
66523;SDS011;53350;52.210;5.160;2022-07-29T06:15:40;6.97;;;2.10;;
66523;SDS011;53350;52.210;5.160;2022-07-29T06:18:07;9.27;;;2.22;;
66523;SDS011;53350;52.210;5.160;2022-07-29T06:20:35;4.28;;;1.60;;
66523;SDS011;53350;52.210;5.160;2022-07-29T06:23:01;8.32;;;2.20;;
66523;SDS011;53350;52.210;5.160;2022-07-29T06:25:29;5.90;;;2.00;;
66523;SDS011;53350;52.210;5.160;2022-07-29T06:27:57;6.78;;;2.13;;
66523;SDS011;53350;52.210;5.160;2022-07-29T06:30:25;6.00;;;1.95;;
66523;SDS011;53350;52.210;5.160;2022-07-29T06:32:51;7.15;;;1.73;;
66523;SDS011;53350;52.210;5.160;2022-07-29T06:35:18;6.20;;;2.05;;
66523;SDS011;53350;52.210;5.160;2022-07-29T06:37:44;4.00;;;1.50;;
66523;SDS011;53350;52.210;5.160;2022-07-29T06:40:11;5.35;;;1.90;;
66523;SDS011;53350;52.210;5.160;2022-07-29T06:42:55;7.70;;;1.90;;
66523;SDS011;53350;52.210;5.160;2022-07-29T06:45:22;8.20;;;2.50;;
66523;SDS011;53350;52.210;5.160;2022-07-29T06:47:50;6.55;;;2.03;;
66523;SDS011;53350;52.210;5.160;2022-07-29T06:50:17;9.15;;;2.17;;
66523;SDS011;53350;52.210;5.160;2022-07-29T06:52:43;10.45;;;2.20;;
66523;SDS011;53350;52.210;5.160;2022-07-29T06:55:09;5.93;;;2.00;;
66523;SDS011;53350;52.210;5.160;2022-07-29T06:57:36;7.88;;;2.17;;
66523;SDS011;53350;52.210;5.160;2022-07-29T07:00:03;6.30;;;2.00;;
66523;SDS011;53350;52.210;5.160;2022-07-29T07:02:30;5.00;;;2.00;;
66523;SDS011;53350;52.210;5.160;2022-07-29T07:04:58;4.88;;;1.98;;
66523;SDS011;53350;52.210;5.160;2022-07-29T07:07:24;8.98;;;2.00;;
66523;SDS011;53350;52.210;5.160;2022-07-29T07:09:51;5.47;;;2.13;;
66523;SDS011;53350;52.210;5.160;2022-07-29T07:12:17;7.57;;;2.15;;
66523;SDS011;53350;52.210;5.160;2022-07-29T07:14:44;12.63;;;2.60;;
66523;SDS011;53350;52.210;5.160;2022-07-29T07:17:10;8.45;;;2.33;;
66523;SDS011;53350;52.210;5.160;2022-07-29T07:19:36;7.40;;;2.30;;
66523;SDS011;53350;52.210;5.160;2022-07-29T07:22:04;12.05;;;2.20;;
66523;SDS011;53350;52.210;5.160;2022-07-29T07:24:31;5.57;;;2.03;;
66523;SDS011;53350;52.210;5.160;2022-07-29T07:26:57;6.50;;;2.17;;
66523;SDS011;53350;52.210;5.160;2022-07-29T07:29:24;6.45;;;1.92;;
66523;SDS011;53350;52.210;5.160;2022-07-29T07:31:50;13.15;;;2.72;;
66523;SDS011;53350;52.210;5.160;2022-07-29T07:34:17;6.85;;;2.10;;
66523;SDS011;53350;52.210;5.160;2022-07-29T07:36:44;7.00;;;2.50;;
66523;SDS011;53350;52.210;5.160;2022-07-29T07:39:11;8.48;;;2.55;;
66523;SDS011;53350;52.210;5.160;2022-07-29T07:41:38;4.63;;;2.50;;
66523;SDS011;53350;52.210;5.160;2022-07-29T07:44:04;5.90;;;2.20;;
66523;SDS011;53350;52.210;5.160;2022-07-29T07:46:31;7.00;;;2.70;;
66523;SDS011;53350;52.210;5.160;2022-07-29T07:48:57;12.43;;;2.90;;
66523;SDS011;53350;52.210;5.160;2022-07-29T07:51:24;5.43;;;2.50;;
66523;SDS011;53350;52.210;5.160;2022-07-29T07:53:50;8.82;;;2.67;;
66523;SDS011;53350;52.210;5.160;2022-07-29T07:56:18;7.90;;;2.42;;
66523;SDS011;53350;52.210;5.160;2022-07-29T08:01:11;8.77;;;3.03;;
66523;SDS011;53350;52.210;5.160;2022-07-29T08:03:38;6.38;;;2.50;;
66523;SDS011;53350;52.210;5.160;2022-07-29T08:06:04;7.95;;;2.80;;
66523;SDS011;53350;52.210;5.160;2022-07-29T08:08:30;8.75;;;2.78;;
66523;SDS011;53350;52.210;5.160;2022-07-29T08:10:57;7.07;;;2.72;;
66523;SDS011;53350;52.210;5.160;2022-07-29T08:13:25;7.38;;;2.50;;
66523;SDS011;53350;52.210;5.160;2022-07-29T08:15:55;7.72;;;2.40;;
66523;SDS011;53350;52.210;5.160;2022-07-29T08:18:25;7.18;;;2.83;;
66523;SDS011;53350;52.210;5.160;2022-07-29T08:20:53;10.80;;;2.30;;
66523;SDS011;53350;52.210;5.160;2022-07-29T08:23:20;7.38;;;2.65;;
66523;SDS011;53350;52.210;5.160;2022-07-29T08:25:47;6.10;;;2.35;;
66523;SDS011;53350;52.210;5.160;2022-07-29T08:28:14;8.40;;;2.50;;
66523;SDS011;53350;52.210;5.160;2022-07-29T08:30:42;8.68;;;2.55;;
66523;SDS011;53350;52.210;5.160;2022-07-29T08:33:09;7.75;;;2.40;;
66523;SDS011;53350;52.210;5.160;2022-07-29T08:35:35;6.35;;;2.63;;
66523;SDS011;53350;52.210;5.160;2022-07-29T08:38:02;8.75;;;2.53;;
66523;SDS011;53350;52.210;5.160;2022-07-29T08:40:29;5.20;;;2.17;;
66523;SDS011;53350;52.210;5.160;2022-07-29T08:42:55;7.22;;;2.33;;
66523;SDS011;53350;52.210;5.160;2022-07-29T08:45:22;6.78;;;2.47;;
66523;SDS011;53350;52.210;5.160;2022-07-29T08:47:50;7.22;;;2.50;;
66523;SDS011;53350;52.210;5.160;2022-07-29T08:50:18;7.97;;;2.75;;
66523;SDS011;53350;52.210;5.160;2022-07-29T08:52:44;6.35;;;2.33;;
66523;SDS011;53350;52.210;5.160;2022-07-29T08:55:11;7.30;;;2.20;;
66523;SDS011;53350;52.210;5.160;2022-07-29T08:57:41;7.68;;;2.22;;
66523;SDS011;53350;52.210;5.160;2022-07-29T09:00:08;6.45;;;2.30;;
66523;SDS011;53350;52.210;5.160;2022-07-29T09:02:39;6.68;;;2.17;;
66523;SDS011;53350;52.210;5.160;2022-07-29T09:05:09;5.25;;;2.45;;
66523;SDS011;53350;52.210;5.160;2022-07-29T09:07:36;6.85;;;2.13;;
66523;SDS011;53350;52.210;5.160;2022-07-29T09:10:07;9.80;;;2.40;;
66523;SDS011;53350;52.210;5.160;2022-07-29T09:12:34;5.18;;;1.95;;
66523;SDS011;53350;52.210;5.160;2022-07-29T09:15:01;6.43;;;2.22;;
66523;SDS011;53350;52.210;5.160;2022-07-29T09:20:12;5.30;;;2.30;;
66523;SDS011;53350;52.210;5.160;2022-07-29T09:22:40;5.65;;;2.20;;
66523;SDS011;53350;52.210;5.160;2022-07-29T09:25:06;6.57;;;2.45;;
66523;SDS011;53350;52.210;5.160;2022-07-29T09:27:33;6.32;;;2.40;;
66523;SDS011;53350;52.210;5.160;2022-07-29T09:30:01;6.83;;;2.53;;
66523;SDS011;53350;52.210;5.160;2022-07-29T09:32:30;10.80;;;2.55;;
66523;SDS011;53350;52.210;5.160;2022-07-29T09:35:18;7.18;;;2.47;;
66523;SDS011;53350;52.210;5.160;2022-07-29T09:37:46;10.55;;;2.50;;
66523;SDS011;53350;52.210;5.160;2022-07-29T09:40:14;7.57;;;2.37;;
66523;SDS011;53350;52.210;5.160;2022-07-29T09:42:42;6.65;;;2.30;;
66523;SDS011;53350;52.210;5.160;2022-07-29T09:45:09;6.87;;;2.30;;
66523;SDS011;53350;52.210;5.160;2022-07-29T09:47:43;8.70;;;2.40;;
66523;SDS011;53350;52.210;5.160;2022-07-29T09:50:12;9.52;;;2.40;;
66523;SDS011;53350;52.210;5.160;2022-07-29T09:52:46;12.88;;;2.83;;
66523;SDS011;53350;52.210;5.160;2022-07-29T09:55:14;7.47;;;2.22;;
66523;SDS011;53350;52.210;5.160;2022-07-29T09:57:41;9.00;;;2.50;;
66523;SDS011;53350;52.210;5.160;2022-07-29T10:00:09;10.35;;;2.42;;
66523;SDS011;53350;52.210;5.160;2022-07-29T10:02:37;7.65;;;2.40;;
66523;SDS011;53350;52.210;5.160;2022-07-29T10:07:45;9.50;;;2.40;;
66523;SDS011;53350;52.210;5.160;2022-07-29T10:10:21;11.60;;;2.40;;
66523;SDS011;53350;52.210;5.160;2022-07-29T10:12:49;9.63;;;2.50;;
66523;SDS011;53350;52.210;5.160;2022-07-29T10:15:18;10.30;;;2.50;;
66523;SDS011;53350;52.210;5.160;2022-07-29T10:17:46;6.18;;;2.20;;
66523;SDS011;53350;52.210;5.160;2022-07-29T10:20:14;8.13;;;2.50;;
66523;SDS011;53350;52.210;5.160;2022-07-29T10:22:41;7.17;;;2.63;;
66523;SDS011;53350;52.210;5.160;2022-07-29T10:25:10;7.63;;;2.47;;
66523;SDS011;53350;52.210;5.160;2022-07-29T10:27:36;11.00;;;2.58;;
66523;SDS011;53350;52.210;5.160;2022-07-29T10:30:04;9.32;;;2.72;;
66523;SDS011;53350;52.210;5.160;2022-07-29T10:32:37;8.25;;;2.30;;
66523;SDS011;53350;52.210;5.160;2022-07-29T10:35:28;9.00;;;2.53;;
66523;SDS011;53350;52.210;5.160;2022-07-29T10:38:09;9.77;;;2.22;;
66523;SDS011;53350;52.210;5.160;2022-07-29T10:40:49;7.50;;;2.22;;
66523;SDS011;53350;52.210;5.160;2022-07-29T10:43:42;8.80;;;2.60;;
66523;SDS011;53350;52.210;5.160;2022-07-29T10:46:10;8.27;;;1.88;;
66523;SDS011;53350;52.210;5.160;2022-07-29T10:51:51;8.88;;;2.50;;
66523;SDS011;53350;52.210;5.160;2022-07-29T10:54:38;7.17;;;2.13;;
66523;SDS011;53350;52.210;5.160;2022-07-29T10:57:13;9.43;;;2.45;;
66523;SDS011;53350;52.210;5.160;2022-07-29T10:59:40;6.28;;;2.75;;
66523;SDS011;53350;52.210;5.160;2022-07-29T11:05:08;7.22;;;2.60;;
66523;SDS011;53350;52.210;5.160;2022-07-29T11:07:37;7.28;;;2.50;;
66523;SDS011;53350;52.210;5.160;2022-07-29T11:12:56;10.93;;;2.50;;
66523;SDS011;53350;52.210;5.160;2022-07-29T11:15:23;5.57;;;2.60;;
66523;SDS011;53350;52.210;5.160;2022-07-29T11:20:40;6.88;;;2.70;;
66523;SDS011;53350;52.210;5.160;2022-07-29T11:23:17;7.57;;;2.85;;
66523;SDS011;53350;52.210;5.160;2022-07-29T11:28:57;12.02;;;3.10;;
66523;SDS011;53350;52.210;5.160;2022-07-29T11:31:32;6.53;;;2.33;;
66523;SDS011;53350;52.210;5.160;2022-07-29T11:39:46;9.73;;;2.60;;
66523;SDS011;53350;52.210;5.160;2022-07-29T11:45:05;13.45;;;2.72;;
66523;SDS011;53350;52.210;5.160;2022-07-29T11:47:34;5.97;;;2.70;;
66523;SDS011;53350;52.210;5.160;2022-07-29T11:50:03;12.35;;;2.78;;
66523;SDS011;53350;52.210;5.160;2022-07-29T11:52:32;6.97;;;2.20;;
66523;SDS011;53350;52.210;5.160;2022-07-29T11:55:01;8.60;;;2.60;;
66523;SDS011;53350;52.210;5.160;2022-07-29T11:57:29;7.78;;;2.30;;
66523;SDS011;53350;52.210;5.160;2022-07-29T11:59:55;11.20;;;3.00;;
66523;SDS011;53350;52.210;5.160;2022-07-29T12:02:25;9.48;;;2.67;;
66523;SDS011;53350;52.210;5.160;2022-07-29T12:05:04;6.90;;;2.30;;
66523;SDS011;53350;52.210;5.160;2022-07-29T12:07:31;7.25;;;2.50;;
66523;SDS011;53350;52.210;5.160;2022-07-29T12:10:00;6.72;;;2.53;;
66523;SDS011;53350;52.210;5.160;2022-07-29T12:12:27;7.63;;;2.17;;
66523;SDS011;53350;52.210;5.160;2022-07-29T12:14:53;8.90;;;2.22;;
66523;SDS011;53350;52.210;5.160;2022-07-29T12:17:28;8.93;;;2.60;;
66523;SDS011;53350;52.210;5.160;2022-07-29T12:19:56;6.35;;;2.28;;
66523;SDS011;53350;52.210;5.160;2022-07-29T12:22:26;11.03;;;2.50;;
66523;SDS011;53350;52.210;5.160;2022-07-29T12:24:53;11.73;;;2.38;;
66523;SDS011;53350;52.210;5.160;2022-07-29T12:27:20;8.27;;;2.40;;
66523;SDS011;53350;52.210;5.160;2022-07-29T12:29:54;7.43;;;2.03;;
66523;SDS011;53350;52.210;5.160;2022-07-29T12:32:22;10.30;;;2.25;;
66523;SDS011;53350;52.210;5.160;2022-07-29T12:34:50;6.80;;;2.13;;
66523;SDS011;53350;52.210;5.160;2022-07-29T12:39:43;8.05;;;2.45;;
66523;SDS011;53350;52.210;5.160;2022-07-29T12:42:11;10.00;;;2.20;;
66523;SDS011;53350;52.210;5.160;2022-07-29T12:44:44;10.48;;;2.58;;
66523;SDS011;53350;52.210;5.160;2022-07-29T12:47:12;7.40;;;2.40;;
66523;SDS011;53350;52.210;5.160;2022-07-29T12:49:39;6.93;;;2.45;;
66523;SDS011;53350;52.210;5.160;2022-07-29T12:54:55;8.18;;;2.70;;
66523;SDS011;53350;52.210;5.160;2022-07-29T12:57:22;7.78;;;2.28;;
66523;SDS011;53350;52.210;5.160;2022-07-29T13:00:03;9.38;;;2.65;;
66523;SDS011;53350;52.210;5.160;2022-07-29T13:02:34;12.80;;;2.30;;
66523;SDS011;53350;52.210;5.160;2022-07-29T13:05:01;7.03;;;2.00;;
66523;SDS011;53350;52.210;5.160;2022-07-29T13:07:30;5.90;;;2.08;;
66523;SDS011;53350;52.210;5.160;2022-07-29T13:10:10;9.32;;;2.28;;
66523;SDS011;53350;52.210;5.160;2022-07-29T13:12:38;5.57;;;2.20;;
66523;SDS011;53350;52.210;5.160;2022-07-29T13:15:12;6.60;;;2.00;;
66523;SDS011;53350;52.210;5.160;2022-07-29T13:17:41;11.07;;;2.35;;
66523;SDS011;53350;52.210;5.160;2022-07-29T13:22:38;10.05;;;2.22;;
66523;SDS011;53350;52.210;5.160;2022-07-29T13:25:07;7.80;;;2.00;;
66523;SDS011;53350;52.210;5.160;2022-07-29T13:27:36;5.18;;;1.88;;
66523;SDS011;53350;52.210;5.160;2022-07-29T13:30:05;7.90;;;2.13;;
66523;SDS011;53350;52.210;5.160;2022-07-29T13:32:34;11.32;;;2.30;;
66523;SDS011;53350;52.210;5.160;2022-07-29T13:35:03;9.60;;;1.90;;
66523;SDS011;53350;52.210;5.160;2022-07-29T13:37:31;7.70;;;2.40;;
66523;SDS011;53350;52.210;5.160;2022-07-29T13:40:00;5.05;;;2.17;;
66523;SDS011;53350;52.210;5.160;2022-07-29T13:42:28;7.15;;;2.28;;
66523;SDS011;53350;52.210;5.160;2022-07-29T13:44:55;7.72;;;2.40;;
66523;SDS011;53350;52.210;5.160;2022-07-29T13:47:21;7.53;;;2.28;;
66523;SDS011;53350;52.210;5.160;2022-07-29T13:49:48;5.32;;;2.03;;
66523;SDS011;53350;52.210;5.160;2022-07-29T13:52:15;5.50;;;2.55;;
66523;SDS011;53350;52.210;5.160;2022-07-29T13:54:41;13.55;;;2.28;;
66523;SDS011;53350;52.210;5.160;2022-07-29T13:57:09;9.30;;;2.45;;
66523;SDS011;53350;52.210;5.160;2022-07-29T13:59:36;8.18;;;2.30;;
66523;SDS011;53350;52.210;5.160;2022-07-29T14:02:03;9.82;;;2.60;;
66523;SDS011;53350;52.210;5.160;2022-07-29T14:04:30;8.43;;;2.60;;
66523;SDS011;53350;52.210;5.160;2022-07-29T14:06:57;17.88;;;2.55;;
66523;SDS011;53350;52.210;5.160;2022-07-29T14:09:23;7.68;;;2.58;;
66523;SDS011;53350;52.210;5.160;2022-07-29T14:11:49;10.68;;;2.40;;
66523;SDS011;53350;52.210;5.160;2022-07-29T14:14:19;5.55;;;2.17;;
66523;SDS011;53350;52.210;5.160;2022-07-29T14:19:12;9.43;;;2.30;;
66523;SDS011;53350;52.210;5.160;2022-07-29T14:21:38;11.90;;;2.15;;
66523;SDS011;53350;52.210;5.160;2022-07-29T14:24:05;7.45;;;2.00;;
66523;SDS011;53350;52.210;5.160;2022-07-29T14:26:32;6.60;;;2.20;;
66523;SDS011;53350;52.210;5.160;2022-07-29T14:28:58;8.55;;;2.70;;
66523;SDS011;53350;52.210;5.160;2022-07-29T14:31:26;7.63;;;2.00;;
66523;SDS011;53350;52.210;5.160;2022-07-29T14:33:53;7.40;;;2.42;;
66523;SDS011;53350;52.210;5.160;2022-07-29T14:36:19;7.70;;;3.00;;
66523;SDS011;53350;52.210;5.160;2022-07-29T14:38:45;6.15;;;2.20;;
66523;SDS011;53350;52.210;5.160;2022-07-29T14:41:12;8.50;;;2.38;;
66523;SDS011;53350;52.210;5.160;2022-07-29T14:43:38;11.52;;;2.63;;
66523;SDS011;53350;52.210;5.160;2022-07-29T14:46:05;8.57;;;2.55;;
66523;SDS011;53350;52.210;5.160;2022-07-29T14:48:33;7.60;;;2.37;;
66523;SDS011;53350;52.210;5.160;2022-07-29T14:50:59;6.97;;;2.50;;
66523;SDS011;53350;52.210;5.160;2022-07-29T14:53:26;8.15;;;2.03;;
66523;SDS011;53350;52.210;5.160;2022-07-29T14:55:52;9.52;;;2.60;;
66523;SDS011;53350;52.210;5.160;2022-07-29T14:58:19;6.07;;;1.95;;
66523;SDS011;53350;52.210;5.160;2022-07-29T15:03:13;6.05;;;2.10;;
66523;SDS011;53350;52.210;5.160;2022-07-29T15:05:41;7.90;;;2.35;;
66523;SDS011;53350;52.210;5.160;2022-07-29T15:08:07;11.23;;;2.50;;
66523;SDS011;53350;52.210;5.160;2022-07-29T15:10:34;9.13;;;2.28;;
66523;SDS011;53350;52.210;5.160;2022-07-29T15:13:00;10.13;;;2.03;;
66523;SDS011;53350;52.210;5.160;2022-07-29T15:15:27;6.30;;;2.40;;
66523;SDS011;53350;52.210;5.160;2022-07-29T15:17:53;10.05;;;2.88;;
66523;SDS011;53350;52.210;5.160;2022-07-29T15:20:20;10.15;;;2.50;;
66523;SDS011;53350;52.210;5.160;2022-07-29T15:22:50;7.82;;;2.83;;
66523;SDS011;53350;52.210;5.160;2022-07-29T15:25:16;7.22;;;3.00;;
66523;SDS011;53350;52.210;5.160;2022-07-29T15:27:43;7.90;;;2.33;;
66523;SDS011;53350;52.210;5.160;2022-07-29T15:30:10;8.52;;;2.38;;
66523;SDS011;53350;52.210;5.160;2022-07-29T15:32:36;9.73;;;2.50;;
66523;SDS011;53350;52.210;5.160;2022-07-29T15:35:03;6.28;;;2.60;;
66523;SDS011;53350;52.210;5.160;2022-07-29T15:37:30;11.57;;;2.60;;
66523;SDS011;53350;52.210;5.160;2022-07-29T15:40:01;13.65;;;2.58;;
66523;SDS011;53350;52.210;5.160;2022-07-29T15:42:27;7.38;;;2.25;;
66523;SDS011;53350;52.210;5.160;2022-07-29T15:44:53;9.93;;;2.72;;
66523;SDS011;53350;52.210;5.160;2022-07-29T15:47:20;11.98;;;2.42;;
66523;SDS011;53350;52.210;5.160;2022-07-29T15:49:47;6.78;;;2.50;;
66523;SDS011;53350;52.210;5.160;2022-07-29T15:52:14;7.70;;;2.70;;
66523;SDS011;53350;52.210;5.160;2022-07-29T15:54:41;15.70;;;3.08;;